createdAt,value
2019-03-13T00:00:07.473Z,46.77
2019-03-13T00:01:07.453Z,47.29
2019-03-13T00:02:07.444Z,46.26
2019-03-13T00:03:07.439Z,45.43
2019-03-13T00:04:07.419Z,46.47
2019-03-13T00:05:07.424Z,46.57
2019-03-13T00:06:07.403Z,46.26
2019-03-13T00:07:07.403Z,46.77
2019-03-13T00:08:07.378Z,46.88
2019-03-13T00:09:07.367Z,46.36
2019-03-13T00:10:07.364Z,46.77
2019-03-13T00:11:07.344Z,46.77
2019-03-13T00:12:07.336Z,46.36
2019-03-13T00:13:07.325Z,46.36
2019-03-13T00:14:07.337Z,46.77
2019-03-13T00:15:07.311Z,46.57
2019-03-13T00:16:07.291Z,46.14
2019-03-13T00:17:07.278Z,45.43
2019-03-13T00:18:07.268Z,46.88
2019-03-13T00:19:07.257Z,46.98
2019-03-13T00:20:07.265Z,46.67
2019-03-13T00:21:07.237Z,47.08
2019-03-13T00:22:07.230Z,46.24
2019-03-13T00:23:07.216Z,45.54
2019-03-13T00:24:07.202Z,46.98
2019-03-13T00:25:07.203Z,45.54
2019-03-13T00:26:07.181Z,45.43
2019-03-13T00:27:07.171Z,46.57
2019-03-13T00:28:07.157Z,47.19
2019-03-13T00:29:07.155Z,45.31
2019-03-13T00:30:07.147Z,46.14
2019-03-13T00:31:07.138Z,45.23
2019-03-13T00:32:07.113Z,44.51
2019-03-13T00:33:07.105Z,45.01
2019-03-13T00:34:07.093Z,44.59
2019-03-13T00:35:07.095Z,44.49
2019-03-13T00:36:07.073Z,45.52
2019-03-13T00:37:07.060Z,45.01
2019-03-13T00:38:07.047Z,44.80
2019-03-13T00:39:07.043Z,44.80
2019-03-13T00:40:07.035Z,44.70
2019-03-13T00:41:07.017Z,44.70
2019-03-13T00:42:07.008Z,44.39
2019-03-13T00:43:06.994Z,45.21
2019-03-13T00:44:06.990Z,44.80
2019-03-13T00:45:06.987Z,44.80
2019-03-13T00:46:06.961Z,44.39
2019-03-13T00:47:06.952Z,44.18
2019-03-13T00:48:06.941Z,44.29
2019-03-13T00:49:06.937Z,44.59
2019-03-13T00:50:06.929Z,44.08
2019-03-13T00:51:06.908Z,45.52
2019-03-13T00:52:06.938Z,43.87
2019-03-13T00:53:06.885Z,43.16
2019-03-13T00:54:06.875Z,44.59
2019-03-13T00:55:06.872Z,44.98
2019-03-13T00:56:06.851Z,45.01
2019-03-13T00:57:06.840Z,44.17
2019-03-13T00:58:06.846Z,44.17
2019-03-13T00:59:06.822Z,44.49
2019-03-13T01:00:06.818Z,43.13
2019-03-13T01:01:06.797Z,44.59
2019-03-13T01:02:06.787Z,43.57
2019-03-13T01:03:06.778Z,44.06
2019-03-13T01:04:06.766Z,43.75
2019-03-13T01:05:06.786Z,43.13
2019-03-13T01:06:06.742Z,43.16
2019-03-13T01:07:06.739Z,43.13
2019-03-13T01:08:06.721Z,42.83
2019-03-13T01:09:06.711Z,42.83
2019-03-13T01:10:06.699Z,44.26
2019-03-13T01:11:06.705Z,44.98
2019-03-13T01:12:06.678Z,43.85
2019-03-13T01:13:06.670Z,44.26
2019-03-13T01:14:06.657Z,43.13
2019-03-13T01:15:06.650Z,44.37
2019-03-13T01:16:06.644Z,44.47
2019-03-13T01:17:06.630Z,44.47
2019-03-13T01:18:06.613Z,44.17
2019-03-13T01:19:06.600Z,44.68
2019-03-13T01:20:06.600Z,44.88
2019-03-13T01:21:06.588Z,45.09
2019-03-13T01:22:06.568Z,45.19
2019-03-13T01:23:06.558Z,44.80
2019-03-13T01:24:06.570Z,44.47
2019-03-13T01:25:06.542Z,44.68
2019-03-13T01:26:06.535Z,45.09
2019-03-13T01:27:06.513Z,45.09
2019-03-13T01:28:06.505Z,44.68
2019-03-13T01:29:06.494Z,44.68
2019-03-13T01:30:06.486Z,45.29
2019-03-13T01:31:06.481Z,44.78
2019-03-13T01:32:06.466Z,45.29
2019-03-13T01:33:06.451Z,45.70
2019-03-13T01:34:06.436Z,47.04
2019-03-13T01:35:06.430Z,47.55
2019-03-13T01:36:06.445Z,48.99
2019-03-13T01:37:06.404Z,49.91
2019-03-13T01:38:06.392Z,50.53
2019-03-13T01:39:06.382Z,51.87
2019-03-13T01:40:06.375Z,52.28
2019-03-13T01:41:06.369Z,53.02
2019-03-13T01:42:06.350Z,52.79
2019-03-13T01:43:06.340Z,53.10
2019-03-13T01:44:06.345Z,54.74
2019-03-13T01:45:06.318Z,53.43
2019-03-13T01:46:06.314Z,53.74
2019-03-13T01:47:06.303Z,54.46
2019-03-13T01:48:06.284Z,54.13
2019-03-13T01:49:06.273Z,53.92
2019-03-13T01:50:06.262Z,54.77
2019-03-13T01:51:06.262Z,54.56
2019-03-13T01:52:06.242Z,54.87
2019-03-13T01:53:06.231Z,56.31
2019-03-13T01:54:06.218Z,56.21
2019-03-13T01:55:06.208Z,56.31
2019-03-13T01:56:06.215Z,56.21
2019-03-13T01:57:06.187Z,57.34
2019-03-13T01:58:06.179Z,58.36
2019-03-13T01:59:06.165Z,58.06
2019-03-13T02:00:06.153Z,58.57
2019-03-13T02:01:06.186Z,58.67
2019-03-13T02:02:06.134Z,58.57
2019-03-13T02:03:06.122Z,58.80
2019-03-13T02:04:06.110Z,59.19
2019-03-13T02:05:06.110Z,59.93
2019-03-13T02:06:06.100Z,59.63
2019-03-13T02:07:06.082Z,59.63
2019-03-13T02:08:06.066Z,60.75
2019-03-13T02:09:07.050Z,61.27
2019-03-13T02:10:06.045Z,61.17
2019-03-13T02:11:06.043Z,61.17
2019-03-13T02:12:06.039Z,61.79
2019-03-13T02:13:06.013Z,62.60
2019-03-13T02:14:05.999Z,62.30
2019-03-13T02:15:05.992Z,62.60
2019-03-13T02:16:05.980Z,63.02
2019-03-13T02:17:06.005Z,63.22
2019-03-13T02:18:05.957Z,63.74
2019-03-13T02:19:05.946Z,63.94
2019-03-13T02:20:05.937Z,64.36
2019-03-13T02:21:05.925Z,64.25
2019-03-13T02:22:05.922Z,65.28
2019-03-13T02:23:05.904Z,65.52
2019-03-13T02:24:05.892Z,64.66
2019-03-13T02:25:05.879Z,65.62
2019-03-13T02:26:05.885Z,65.72
2019-03-13T02:27:05.881Z,65.48
2019-03-13T02:28:05.850Z,66.20
2019-03-13T02:29:05.836Z,66.61
2019-03-13T02:30:05.828Z,66.13
2019-03-13T02:31:05.822Z,66.24
2019-03-13T02:32:05.826Z,65.52
2019-03-13T02:33:05.792Z,65.62
2019-03-13T02:34:05.782Z,66.75
2019-03-13T02:35:05.772Z,67.06
2019-03-13T02:36:05.761Z,66.44
2019-03-13T02:37:05.774Z,67.47
2019-03-13T02:38:05.738Z,66.85
2019-03-13T02:39:05.734Z,67.06
2019-03-13T02:40:05.722Z,67.16
2019-03-13T02:41:05.713Z,67.88
2019-03-13T02:42:05.719Z,68.08
2019-03-13T02:43:05.689Z,68.29
2019-03-13T02:44:05.680Z,68.40
2019-03-13T02:45:05.663Z,67.57
2019-03-13T02:46:05.676Z,68.26
2019-03-13T02:47:05.652Z,67.88
2019-03-13T02:48:05.634Z,68.08
2019-03-13T02:49:05.618Z,68.40
2019-03-13T02:50:05.610Z,67.68
2019-03-13T02:51:05.602Z,68.40
2019-03-13T02:52:05.602Z,67.68
2019-03-13T02:53:05.579Z,68.40
2019-03-13T02:54:05.606Z,67.88
2019-03-13T02:55:05.561Z,67.68
2019-03-13T02:56:05.545Z,68.40
2019-03-13T02:57:05.540Z,67.68
2019-03-13T02:58:05.581Z,68.40
2019-03-13T02:59:05.514Z,67.47
2019-03-13T03:00:06.060Z,68.29
2019-03-13T03:01:05.491Z,68.19
2019-03-13T03:02:05.495Z,68.19
2019-03-13T03:03:05.466Z,68.40
2019-03-13T03:04:05.456Z,68.19
2019-03-13T03:05:05.457Z,67.88
2019-03-13T03:06:05.435Z,67.78
2019-03-13T03:07:05.446Z,67.98
2019-03-13T03:08:05.429Z,67.26
2019-03-13T03:09:05.407Z,68.29
2019-03-13T03:10:05.391Z,67.06
2019-03-13T03:11:05.390Z,67.68
2019-03-13T03:12:05.384Z,67.47
2019-03-13T03:13:05.391Z,67.47
2019-03-13T03:14:05.351Z,67.36
2019-03-13T03:15:05.359Z,67.88
2019-03-13T03:16:05.330Z,67.78
2019-03-13T03:17:05.332Z,67.33
2019-03-13T03:18:05.305Z,67.47
2019-03-13T03:19:05.318Z,67.06
2019-03-13T03:20:05.291Z,67.06
2019-03-13T03:21:05.272Z,67.06
2019-03-13T03:22:05.268Z,67.06
2019-03-13T03:23:05.248Z,66.44
2019-03-13T03:24:05.243Z,66.31
2019-03-13T03:25:05.235Z,65.52
2019-03-13T03:26:05.216Z,67.03
2019-03-13T03:27:05.234Z,67.26
2019-03-13T03:28:05.195Z,67.57
2019-03-13T03:29:05.194Z,67.16
2019-03-13T03:30:05.182Z,66.34
2019-03-13T03:31:05.216Z,66.13
2019-03-13T03:32:05.161Z,65.52
2019-03-13T03:33:06.069Z,66.44
2019-03-13T03:34:05.186Z,65.52
2019-03-13T03:35:05.129Z,65.72
2019-03-13T03:36:05.113Z,66.34
2019-03-13T03:37:05.186Z,65.72
2019-03-13T03:38:05.088Z,65.41
2019-03-13T03:39:05.088Z,65.41
2019-03-13T03:40:05.064Z,66.00
2019-03-13T03:41:05.059Z,66.03
2019-03-13T03:42:05.050Z,65.72
2019-03-13T03:43:05.035Z,66.64
2019-03-13T03:44:05.042Z,66.34
2019-03-13T03:45:05.021Z,66.58
2019-03-13T03:46:05.010Z,66.75
2019-03-13T03:47:04.996Z,66.54
2019-03-13T03:48:04.975Z,66.96
2019-03-13T03:49:04.970Z,67.26
2019-03-13T03:50:04.956Z,66.85
2019-03-13T03:51:04.945Z,67.06
2019-03-13T03:52:04.970Z,67.36
2019-03-13T03:53:04.920Z,67.50
2019-03-13T03:54:04.909Z,67.68
2019-03-13T03:55:04.909Z,67.71
2019-03-13T03:56:04.887Z,67.88
2019-03-13T03:57:04.880Z,68.50
2019-03-13T03:58:04.878Z,67.71
2019-03-13T03:59:04.857Z,67.98
2019-03-13T04:00:04.844Z,68.32
2019-03-13T04:01:04.837Z,68.02
2019-03-13T04:02:04.823Z,68.02
2019-03-13T04:03:04.829Z,68.60
2019-03-13T04:04:04.830Z,67.81
2019-03-13T04:05:04.835Z,67.30
2019-03-13T04:06:04.780Z,66.99
2019-03-13T04:07:04.767Z,66.99
2019-03-13T04:08:04.777Z,66.88
2019-03-13T04:09:04.746Z,67.09
2019-03-13T04:10:04.734Z,66.99
2019-03-13T04:11:04.726Z,66.27
2019-03-13T04:12:04.767Z,65.72
2019-03-13T04:13:04.718Z,65.44
2019-03-13T04:14:04.693Z,66.88
2019-03-13T04:15:04.684Z,66.78
2019-03-13T04:16:04.679Z,66.88
2019-03-13T04:17:04.657Z,66.88
2019-03-13T04:18:04.658Z,66.78
2019-03-13T04:19:04.639Z,65.75
2019-03-13T04:20:04.639Z,65.75
2019-03-13T04:21:04.623Z,66.27
2019-03-13T04:22:04.603Z,65.55
2019-03-13T04:23:04.629Z,65.23
2019-03-13T04:24:04.589Z,65.44
2019-03-13T04:25:04.603Z,64.83
2019-03-13T04:26:04.569Z,64.41
2019-03-13T04:27:04.549Z,64.11
2019-03-13T04:28:04.550Z,64.03
2019-03-13T04:29:04.526Z,64.86
2019-03-13T04:30:04.519Z,64.41
2019-03-13T04:31:04.520Z,63.72
2019-03-13T04:32:04.497Z,64.03
2019-03-13T04:33:04.495Z,64.03
2019-03-13T04:34:04.476Z,63.93
2019-03-13T04:35:04.461Z,63.93
2019-03-13T04:36:04.452Z,63.82
2019-03-13T04:37:04.440Z,63.82
2019-03-13T04:38:04.448Z,63.82
2019-03-13T04:39:04.420Z,64.14
2019-03-13T04:40:04.407Z,64.54
2019-03-13T04:41:04.396Z,63.93
2019-03-13T04:42:04.392Z,64.24
2019-03-13T04:43:04.388Z,65.37
2019-03-13T04:44:04.364Z,65.16
2019-03-13T04:45:04.351Z,65.26
2019-03-13T04:46:04.376Z,65.47
2019-03-13T04:47:04.329Z,65.06
2019-03-13T04:48:04.333Z,64.78
2019-03-13T04:49:04.330Z,65.40
2019-03-13T04:50:04.297Z,64.58
2019-03-13T04:51:04.285Z,65.19
2019-03-13T04:52:04.274Z,65.09
2019-03-13T04:53:04.291Z,64.78
2019-03-13T04:54:04.251Z,64.47
2019-03-13T04:55:04.243Z,64.06
2019-03-13T04:56:04.234Z,63.65
2019-03-13T04:57:04.220Z,63.75
2019-03-13T04:58:04.208Z,63.75
2019-03-13T04:59:04.206Z,64.06
2019-03-13T05:00:04.189Z,63.03
2019-03-13T05:01:04.177Z,62.72
2019-03-13T05:02:04.188Z,61.90
2019-03-13T05:03:04.155Z,62.34
2019-03-13T05:04:04.158Z,61.69
2019-03-13T05:05:04.132Z,61.59
2019-03-13T05:06:04.124Z,62.03
2019-03-13T05:07:04.132Z,61.61
2019-03-13T05:08:04.100Z,62.03
2019-03-13T05:09:04.118Z,62.13
2019-03-13T05:10:04.081Z,61.93
2019-03-13T05:11:04.074Z,61.52
2019-03-13T05:12:04.059Z,61.61
2019-03-13T05:13:04.170Z,60.89
2019-03-13T05:14:04.046Z,61.41
2019-03-13T05:15:04.031Z,61.00
2019-03-13T05:16:04.017Z,61.41
2019-03-13T05:17:04.005Z,61.72
2019-03-13T05:18:03.991Z,61.41
2019-03-13T05:19:03.989Z,61.82
2019-03-13T05:20:03.972Z,61.82
2019-03-13T05:21:03.959Z,61.96
2019-03-13T05:22:03.946Z,61.41
2019-03-13T05:23:03.937Z,61.41
2019-03-13T05:24:03.952Z,61.00
2019-03-13T05:25:03.919Z,61.72
2019-03-13T05:26:03.903Z,61.61
2019-03-13T05:27:03.897Z,62.24
2019-03-13T05:28:03.885Z,61.85
2019-03-13T05:29:03.881Z,61.96
2019-03-13T05:30:03.862Z,61.96
2019-03-13T05:31:03.849Z,61.96
2019-03-13T05:32:03.839Z,61.54
2019-03-13T05:33:03.826Z,61.96
2019-03-13T05:34:03.841Z,61.96
2019-03-13T05:35:03.808Z,61.33
2019-03-13T05:36:03.795Z,61.54
2019-03-13T05:37:03.783Z,61.85
2019-03-13T05:38:03.773Z,61.85
2019-03-13T05:39:03.779Z,61.65
2019-03-13T05:40:03.754Z,61.65
2019-03-13T05:41:03.739Z,62.03
2019-03-13T05:42:03.742Z,61.24
2019-03-13T05:43:03.719Z,61.93
2019-03-13T05:44:04.111Z,61.54
2019-03-13T05:45:03.706Z,61.75
2019-03-13T05:46:03.685Z,61.85
2019-03-13T05:47:03.673Z,62.06
2019-03-13T05:48:03.662Z,61.54
2019-03-13T05:49:03.661Z,61.85
2019-03-13T05:50:03.641Z,62.16
2019-03-13T05:51:03.633Z,61.44
2019-03-13T05:52:03.623Z,61.54
2019-03-13T05:53:03.607Z,62.06
2019-03-13T05:54:03.605Z,61.75
2019-03-13T05:55:03.588Z,61.85
2019-03-13T05:56:03.590Z,62.68
2019-03-13T05:57:03.565Z,62.37
2019-03-13T05:58:03.558Z,61.75
2019-03-13T05:59:03.552Z,61.65
2019-03-13T06:00:03.533Z,61.85
2019-03-13T06:01:03.530Z,62.06
2019-03-13T06:02:03.572Z,61.85
2019-03-13T06:03:03.504Z,62.47
2019-03-13T06:04:03.499Z,61.85
2019-03-13T06:05:03.478Z,61.54
2019-03-13T06:06:03.467Z,61.44
2019-03-13T06:07:04.084Z,61.54
2019-03-13T06:08:03.447Z,61.54
2019-03-13T06:09:03.614Z,61.85
2019-03-13T06:10:03.434Z,62.78
2019-03-13T06:11:03.412Z,62.16
2019-03-13T06:12:03.403Z,62.06
2019-03-13T06:13:03.396Z,62.16
2019-03-13T06:14:03.388Z,61.54
2019-03-13T06:15:03.846Z,61.96
2019-03-13T06:16:03.358Z,61.65
2019-03-13T06:17:03.352Z,61.33
2019-03-13T06:18:03.340Z,61.33
2019-03-13T06:19:03.333Z,61.54
2019-03-13T06:20:03.324Z,61.33
2019-03-13T06:21:03.304Z,61.33
2019-03-13T06:22:03.304Z,61.54
2019-03-13T06:23:03.302Z,61.65
2019-03-13T06:24:03.286Z,61.65
2019-03-13T06:25:03.261Z,61.44
2019-03-13T06:26:03.289Z,61.13
2019-03-13T06:27:03.246Z,61.33
2019-03-13T06:28:03.226Z,61.03
2019-03-13T06:29:03.238Z,60.93
2019-03-13T06:30:03.206Z,60.93
2019-03-13T06:31:03.195Z,60.82
2019-03-13T06:32:03.195Z,61.75
2019-03-13T06:33:03.174Z,61.85
2019-03-13T06:34:03.203Z,61.13
2019-03-13T06:35:03.157Z,61.44
2019-03-13T06:36:03.145Z,61.03
2019-03-13T06:37:03.128Z,61.24
2019-03-13T06:38:03.119Z,60.21
2019-03-13T06:39:03.141Z,60.31
2019-03-13T06:40:03.120Z,61.03
2019-03-13T06:41:05.266Z,61.03
2019-03-13T06:42:03.076Z,60.72
2019-03-13T06:43:03.593Z,59.89
2019-03-13T06:44:03.052Z,59.79
2019-03-13T06:45:03.049Z,60.41
2019-03-13T06:46:03.037Z,59.89
2019-03-13T06:47:03.021Z,60.31
2019-03-13T06:48:03.009Z,60.61
2019-03-13T06:49:03.004Z,60.00
2019-03-13T06:50:02.997Z,60.10
2019-03-13T06:51:02.993Z,60.00
2019-03-13T06:52:02.968Z,59.79
2019-03-13T06:53:02.955Z,60.31
2019-03-13T06:54:02.943Z,60.31
2019-03-13T06:55:02.944Z,60.00
2019-03-13T06:56:02.921Z,60.00
2019-03-13T06:57:02.913Z,60.51
2019-03-13T06:58:02.900Z,61.03
2019-03-13T06:59:02.891Z,59.89
2019-03-13T07:00:02.896Z,60.00
2019-03-13T07:01:02.869Z,60.10
2019-03-13T07:02:02.858Z,60.21
2019-03-13T07:03:02.847Z,60.51
2019-03-13T07:04:02.843Z,59.45
2019-03-13T07:05:02.831Z,60.17
2019-03-13T07:06:02.812Z,60.28
2019-03-13T07:07:02.801Z,60.89
2019-03-13T07:08:02.797Z,60.35
2019-03-13T07:09:02.781Z,59.81
2019-03-13T07:10:02.783Z,59.40
2019-03-13T07:11:02.759Z,58.54
2019-03-13T07:12:02.749Z,58.54
2019-03-13T07:13:02.746Z,58.24
2019-03-13T07:14:02.726Z,58.01
2019-03-13T07:15:02.726Z,57.88
2019-03-13T07:16:02.713Z,57.88
2019-03-13T07:17:02.707Z,57.16
2019-03-13T07:18:02.690Z,57.88
2019-03-13T07:19:02.677Z,57.46
2019-03-13T07:20:02.671Z,56.54
2019-03-13T07:21:02.661Z,56.95
2019-03-13T07:22:02.650Z,56.02
2019-03-13T07:23:02.627Z,56.31
2019-03-13T07:24:02.617Z,55.51
2019-03-13T07:25:02.622Z,55.59
2019-03-13T07:26:02.597Z,55.38
2019-03-13T07:27:02.583Z,55.21
2019-03-13T07:28:02.572Z,53.94
2019-03-13T07:29:12.303Z,55.41
2019-03-13T07:30:03.558Z,55.90
2019-03-13T07:31:02.543Z,55.59
2019-03-13T07:32:02.541Z,55.15
2019-03-13T07:33:02.519Z,54.46
2019-03-13T07:34:02.506Z,54.02
2019-03-13T07:35:02.567Z,53.89
2019-03-13T07:36:02.485Z,53.28
2019-03-13T07:37:02.569Z,53.28
2019-03-13T07:38:02.462Z,53.59
2019-03-13T07:39:02.452Z,53.28
2019-03-13T07:40:02.460Z,51.85
2019-03-13T07:41:02.456Z,50.29
2019-03-13T07:42:02.431Z,50.16
2019-03-13T07:43:02.407Z,49.48
2019-03-13T07:44:02.405Z,49.71
2019-03-13T07:45:02.392Z,48.43
2019-03-13T07:46:02.385Z,46.41
2019-03-13T07:47:02.364Z,46.12
2019-03-13T07:48:02.356Z,47.19
2019-03-13T07:49:02.357Z,47.61
2019-03-13T07:50:02.333Z,48.05
2019-03-13T07:51:11.133Z,47.86
2019-03-13T07:52:02.310Z,47.66
2019-03-13T07:53:02.309Z,47.20
2019-03-13T07:54:02.291Z,46.41
2019-03-13T07:55:02.390Z,47.64
2019-03-13T07:56:02.301Z,47.52
2019-03-13T07:57:02.257Z,46.26
2019-03-13T07:58:02.247Z,46.06
2019-03-13T07:59:02.238Z,46.16
2019-03-13T08:00:02.223Z,46.12
2019-03-13T08:01:02.222Z,45.22
2019-03-13T08:02:02.201Z,43.24
2019-03-13T08:03:02.188Z,41.15
2019-03-13T08:04:05.055Z,42.02
2019-03-13T08:05:02.250Z,40.26
2019-03-13T08:06:02.166Z,38.52
2019-03-13T08:07:02.146Z,38.28
2019-03-13T08:08:02.137Z,38.37
2019-03-13T08:09:02.130Z,36.63
2019-03-13T08:10:02.113Z,36.29
2019-03-13T08:11:02.184Z,35.65
2019-03-13T08:12:02.094Z,34.12
2019-03-13T08:13:02.099Z,34.89
2019-03-13T08:14:02.075Z,32.86
2019-03-13T08:15:02.058Z,32.04
2019-03-13T08:16:02.049Z,32.95
2019-03-13T08:17:02.061Z,32.78
2019-03-13T08:18:02.027Z,32.14
2019-03-13T08:19:02.014Z,32.71
2019-03-13T08:20:02.032Z,31.48
2019-03-13T08:21:01.994Z,31.79
2019-03-13T08:22:01.994Z,32.11
2019-03-13T08:23:02.001Z,32.63
2019-03-13T08:24:01.961Z,31.51
2019-03-13T08:25:01.954Z,31.40
2019-03-13T08:26:01.980Z,31.40
2019-03-13T08:27:01.946Z,32.04
2019-03-13T08:28:02.639Z,32.76
2019-03-13T08:29:01.908Z,31.96
2019-03-13T08:30:01.904Z,32.60
2019-03-13T08:31:01.885Z,33.92
2019-03-13T08:32:01.885Z,33.68
2019-03-13T08:33:01.878Z,32.08
2019-03-13T08:34:01.906Z,32.17
2019-03-13T08:35:01.848Z,31.62
2019-03-13T08:36:01.836Z,29.79
2019-03-13T08:37:01.838Z,32.14
2019-03-13T08:38:01.808Z,31.88
2019-03-13T08:39:01.807Z,33.02
2019-03-13T08:40:01.794Z,34.06
2019-03-13T08:41:01.775Z,33.78
2019-03-13T08:42:01.823Z,34.42
2019-03-13T08:43:01.755Z,35.75
2019-03-13T08:44:01.743Z,34.72
2019-03-13T08:45:01.736Z,34.80
2019-03-13T08:46:01.722Z,35.60
2019-03-13T08:47:02.652Z,34.28
2019-03-13T08:48:01.700Z,33.49
2019-03-13T08:49:01.707Z,34.70
2019-03-13T08:50:01.710Z,34.80
2019-03-13T08:51:01.678Z,34.80
2019-03-13T08:52:01.667Z,33.71
2019-03-13T08:53:01.644Z,33.69
2019-03-13T08:54:01.634Z,34.82
2019-03-13T08:55:02.148Z,34.84
2019-03-13T08:56:01.616Z,34.79
2019-03-13T08:57:01.612Z,32.82
2019-03-13T08:58:01.590Z,32.70
2019-03-13T08:59:01.579Z,32.62
2019-03-13T09:00:01.569Z,32.84
2019-03-13T09:01:01.583Z,33.88
2019-03-13T09:02:01.588Z,33.78
2019-03-13T09:03:01.539Z,34.84
2019-03-13T09:04:01.528Z,35.06
2019-03-13T09:05:01.532Z,34.72
2019-03-13T09:06:01.676Z,34.91
2019-03-13T09:07:01.499Z,33.54
2019-03-13T09:08:01.671Z,32.18
2019-03-13T09:09:01.474Z,32.42
2019-03-13T09:10:01.462Z,31.45
2019-03-13T09:11:01.450Z,30.80
2019-03-13T09:12:01.449Z,30.08
2019-03-13T09:13:02.081Z,30.32
2019-03-13T09:14:01.418Z,31.07
2019-03-13T09:15:01.422Z,32.23
2019-03-13T09:16:01.397Z,31.79
2019-03-13T09:17:01.385Z,30.31
2019-03-13T09:18:01.383Z,29.21
2019-03-13T09:19:01.362Z,27.46
2019-03-13T09:20:01.351Z,26.70
2019-03-13T09:21:01.340Z,29.69
2019-03-13T09:22:01.414Z,30.46
2019-03-13T09:23:01.328Z,30.86
2019-03-13T09:24:01.308Z,31.68
2019-03-13T09:25:11.288Z,31.39
2019-03-13T09:26:02.288Z,32.30
2019-03-13T09:27:01.276Z,32.42
2019-03-13T09:28:01.278Z,33.02
2019-03-13T09:29:01.261Z,33.84
2019-03-13T09:30:01.244Z,33.26
2019-03-13T09:31:01.252Z,33.56
2019-03-13T09:32:01.224Z,33.78
2019-03-13T09:33:01.239Z,33.95
2019-03-13T09:34:01.207Z,33.54
2019-03-13T09:35:01.194Z,34.08
2019-03-13T09:36:01.178Z,34.67
2019-03-13T09:37:01.169Z,31.98
2019-03-13T09:38:01.169Z,30.57
2019-03-13T09:39:01.148Z,31.53
2019-03-13T09:40:01.138Z,30.43
2019-03-13T09:41:01.126Z,29.65
2019-03-13T09:42:01.145Z,30.62
2019-03-13T09:43:01.117Z,29.82
2019-03-13T09:44:01.096Z,29.32
2019-03-13T09:45:01.087Z,30.16
2019-03-13T09:46:01.071Z,32.23
2019-03-13T09:47:01.060Z,33.26
2019-03-13T09:48:02.174Z,34.22
2019-03-13T09:49:01.037Z,35.55
2019-03-13T09:50:01.067Z,35.35
2019-03-13T09:51:01.016Z,35.77
2019-03-13T09:52:01.006Z,36.29
2019-03-13T09:53:01.008Z,36.30
2019-03-13T09:54:00.988Z,37.54
2019-03-13T09:55:04.338Z,37.15
2019-03-13T09:56:00.963Z,37.76
2019-03-13T09:57:00.962Z,37.15
2019-03-13T09:58:00.947Z,37.19
2019-03-13T09:59:00.959Z,38.41
2019-03-13T10:00:00.922Z,38.92
2019-03-13T10:01:00.912Z,37.87
2019-03-13T10:02:00.903Z,37.17
2019-03-13T10:03:00.894Z,38.61
2019-03-13T10:04:00.874Z,38.65
2019-03-13T10:05:00.863Z,39.48
2019-03-13T10:06:00.854Z,38.89
2019-03-13T10:07:01.648Z,40.31
2019-03-13T10:08:01.133Z,41.05
2019-03-13T10:09:00.831Z,41.45
2019-03-13T10:10:00.808Z,41.55
2019-03-13T10:11:00.798Z,41.74
2019-03-13T10:12:00.787Z,40.52
2019-03-13T10:13:00.779Z,41.63
2019-03-13T10:14:00.781Z,40.74
2019-03-13T10:15:00.754Z,40.74
2019-03-13T10:16:00.742Z,40.84
2019-03-13T10:17:10.495Z,41.33
2019-03-13T10:18:01.723Z,39.39
2019-03-13T10:19:00.721Z,37.46
2019-03-13T10:20:00.702Z,37.22
2019-03-13T10:21:00.688Z,37.12
2019-03-13T10:22:00.678Z,37.54
2019-03-13T10:23:00.697Z,37.54
2019-03-13T10:24:00.666Z,36.63
2019-03-13T10:25:00.649Z,36.87
2019-03-13T10:26:00.632Z,38.10
2019-03-13T10:27:00.629Z,38.22
2019-03-13T10:28:00.613Z,38.39
2019-03-13T10:29:01.184Z,36.65
2019-03-13T10:30:00.592Z,37.04
2019-03-13T10:31:00.614Z,36.32
2019-03-13T10:32:00.568Z,37.46
2019-03-13T10:33:00.556Z,37.35
2019-03-13T10:34:00.708Z,36.87
2019-03-13T10:35:00.533Z,37.49
2019-03-13T10:36:00.521Z,37.96
2019-03-13T10:37:00.523Z,36.12
2019-03-13T10:38:12.884Z,36.12
2019-03-13T10:39:01.502Z,36.73
2019-03-13T10:40:00.493Z,36.12
2019-03-13T10:41:00.467Z,36.75
2019-03-13T10:42:00.498Z,37.54
2019-03-13T10:43:00.462Z,36.61
2019-03-13T10:44:00.492Z,35.68
2019-03-13T10:45:00.423Z,34.75
2019-03-13T10:46:00.411Z,34.26
2019-03-13T10:47:00.405Z,34.97
2019-03-13T10:48:00.401Z,36.08
2019-03-13T10:49:00.405Z,35.07
2019-03-13T10:50:00.476Z,35.07
2019-03-13T10:51:00.387Z,36.59
2019-03-13T10:52:00.349Z,35.78
2019-03-13T10:53:00.336Z,35.77
2019-03-13T10:54:00.361Z,35.97
2019-03-13T10:55:00.444Z,35.16
2019-03-13T10:56:00.306Z,34.77
2019-03-13T10:57:00.294Z,35.07
2019-03-13T10:58:00.287Z,35.77
2019-03-13T10:59:00.274Z,34.34
2019-03-13T11:00:00.401Z,35.38
2019-03-13T11:01:00.251Z,34.87
2019-03-13T11:02:00.237Z,35.58
2019-03-13T11:03:00.227Z,34.48
2019-03-13T11:04:00.214Z,35.09
2019-03-13T11:05:00.503Z,36.41
2019-03-13T11:06:00.195Z,36.00
2019-03-13T11:07:00.182Z,34.97
2019-03-13T11:08:00.184Z,34.99
2019-03-13T11:09:00.168Z,35.09
2019-03-13T11:10:00.465Z,36.29
2019-03-13T11:11:00.140Z,36.10
2019-03-13T11:12:00.146Z,36.41
2019-03-13T11:13:00.160Z,36.29
2019-03-13T11:14:00.106Z,36.10
2019-03-13T11:15:00.125Z,35.09
2019-03-13T11:16:00.087Z,35.17
2019-03-13T11:17:00.072Z,36.10
2019-03-13T11:18:00.061Z,35.78
2019-03-13T11:19:00.053Z,34.77
2019-03-13T11:20:00.053Z,35.09
2019-03-13T11:21:00.029Z,35.11
2019-03-13T11:22:00.019Z,35.53
2019-03-13T11:23:00.013Z,36.34
2019-03-13T11:24:01.063Z,36.04
2019-03-13T11:25:00.019Z,36.14
2019-03-13T11:25:59.993Z,35.85
2019-03-13T11:27:00.003Z,36.47
2019-03-13T11:27:59.952Z,36.88
2019-03-13T11:28:59.946Z,37.10
2019-03-13T11:29:59.932Z,37.53
2019-03-13T11:30:59.932Z,37.43
2019-03-13T11:31:59.907Z,38.06
2019-03-13T11:32:59.899Z,38.15
2019-03-13T11:33:59.886Z,38.36
2019-03-13T11:34:59.879Z,39.50
2019-03-13T11:35:59.873Z,39.21
2019-03-13T11:36:59.852Z,38.29
2019-03-13T11:37:59.841Z,38.70
2019-03-13T11:38:59.832Z,38.51
2019-03-13T11:39:59.823Z,39.23
2019-03-13T11:40:59.828Z,39.25
2019-03-13T11:41:59.810Z,39.25
2019-03-13T11:42:59.796Z,39.65
2019-03-13T11:43:59.776Z,39.76
2019-03-13T11:45:00.711Z,40.49
2019-03-13T11:45:59.768Z,39.78
2019-03-13T11:46:59.744Z,40.19
2019-03-13T11:47:59.734Z,41.10
2019-03-13T11:48:59.729Z,41.10
2019-03-13T11:49:59.733Z,41.00
2019-03-13T11:50:59.711Z,40.51
2019-03-13T11:51:59.702Z,40.92
2019-03-13T11:52:59.678Z,40.81
2019-03-13T11:53:59.664Z,41.63
2019-03-13T11:54:59.677Z,41.02
2019-03-13T11:55:59.714Z,40.61
2019-03-13T11:56:59.657Z,41.65
2019-03-13T11:57:59.621Z,42.16
2019-03-13T11:58:59.667Z,41.75
2019-03-13T11:59:59.600Z,42.06
2019-03-13T12:00:59.638Z,42.29
2019-03-13T12:01:59.576Z,41.97
2019-03-13T12:02:59.566Z,42.18
2019-03-13T12:03:59.558Z,43.20
2019-03-13T12:04:59.543Z,42.49
2019-03-13T12:05:59.532Z,43.12
2019-03-13T12:06:59.534Z,43.22
2019-03-13T12:07:59.514Z,42.50
2019-03-13T12:08:59.502Z,43.02
2019-03-13T12:09:59.490Z,43.53
2019-03-13T12:10:59.542Z,43.35
2019-03-13T12:11:59.485Z,43.43
2019-03-13T12:12:59.458Z,42.63
2019-03-13T12:13:59.453Z,43.55
2019-03-13T12:14:59.499Z,44.47
2019-03-13T12:15:59.441Z,43.24
2019-03-13T12:16:59.462Z,44.49
2019-03-13T12:17:59.412Z,44.67
2019-03-13T12:18:59.399Z,43.85
2019-03-13T12:19:59.379Z,44.67
2019-03-13T12:20:59.751Z,43.47
2019-03-13T12:21:59.376Z,44.18
2019-03-13T12:22:59.350Z,45.10
2019-03-13T12:23:59.375Z,44.31
2019-03-13T12:24:59.323Z,44.79
2019-03-13T12:25:59.319Z,44.59
2019-03-13T12:26:59.314Z,44.82
2019-03-13T12:27:59.291Z,44.41
2019-03-13T12:28:59.281Z,44.10
2019-03-13T12:29:59.269Z,44.20
2019-03-13T12:30:59.258Z,45.12
2019-03-13T12:31:59.297Z,44.49
2019-03-13T12:32:59.237Z,44.51
2019-03-13T12:33:59.226Z,44.82
2019-03-13T12:34:59.223Z,44.41
2019-03-13T12:35:59.208Z,45.02
2019-03-13T12:36:59.203Z,45.64
2019-03-13T12:37:59.182Z,45.12
2019-03-13T12:38:59.179Z,45.64
2019-03-13T12:39:59.159Z,45.64
2019-03-13T12:40:59.157Z,45.25
2019-03-13T12:41:59.151Z,45.33
2019-03-13T12:42:59.128Z,45.25
2019-03-13T12:43:59.119Z,45.53
2019-03-13T12:44:59.104Z,44.94
2019-03-13T12:45:59.094Z,45.74
2019-03-13T12:46:59.131Z,45.35
2019-03-13T12:47:59.074Z,45.15
2019-03-13T12:48:59.062Z,45.86
2019-03-13T12:49:59.084Z,45.97
2019-03-13T12:50:59.051Z,45.04
2019-03-13T12:51:59.073Z,46.27